sensor_id;sensor_type;location;lat;lon;timestamp;pressure;altitude;pressure_sealevel;temperature
81885;BMP280;71340;55.154;30.266;2023-07-20T00:02:09;98454.19;;;14.51
81885;BMP280;71340;55.154;30.266;2023-07-20T00:04:34;98444.84;;;14.46
81885;BMP280;71340;55.154;30.266;2023-07-20T00:07:00;98449.78;;;14.41
81885;BMP280;71340;55.154;30.266;2023-07-20T00:09:28;98450.09;;;14.43
81885;BMP280;71340;55.154;30.266;2023-07-20T00:11:53;98444.50;;;14.37
81885;BMP280;71340;55.154;30.266;2023-07-20T00:14:19;98448.25;;;14.40
81885;BMP280;71340;55.154;30.266;2023-07-20T00:16:49;98447.50;;;14.39
81885;BMP280;71340;55.154;30.266;2023-07-20T00:19:22;98447.16;;;14.37
81885;BMP280;71340;55.154;30.266;2023-07-20T00:21:48;98439.69;;;14.32
81885;BMP280;71340;55.154;30.266;2023-07-20T00:24:14;98440.44;;;14.33
81885;BMP280;71340;55.154;30.266;2023-07-20T00:26:39;98437.06;;;14.29
81885;BMP280;71340;55.154;30.266;2023-07-20T00:29:04;98443.47;;;14.28
81885;BMP280;71340;55.154;30.266;2023-07-20T00:31:30;98448.75;;;14.28
81885;BMP280;71340;55.154;30.266;2023-07-20T00:33:55;98435.66;;;14.14
81885;BMP280;71340;55.154;30.266;2023-07-20T00:36:21;98449.59;;;14.14
81885;BMP280;71340;55.154;30.266;2023-07-20T00:38:46;98448.47;;;14.12
81885;BMP280;71340;55.154;30.266;2023-07-20T00:41:11;98453.06;;;14.04
81885;BMP280;71340;55.154;30.266;2023-07-20T00:43:38;98447.41;;;14.06
81885;BMP280;71340;55.154;30.266;2023-07-20T00:46:03;98455.28;;;14.06
81885;BMP280;71340;55.154;30.266;2023-07-20T00:48:29;98454.59;;;13.98
81885;BMP280;71340;55.154;30.266;2023-07-20T00:50:55;98455.00;;;13.97
81885;BMP280;71340;55.154;30.266;2023-07-20T00:53:21;98444.88;;;13.92
81885;BMP280;71340;55.154;30.266;2023-07-20T00:55:46;98453.81;;;14.01
81885;BMP280;71340;55.154;30.266;2023-07-20T00:58:12;98446.31;;;14.00
81885;BMP280;71340;55.154;30.266;2023-07-20T01:00:37;98458.28;;;14.08
81885;BMP280;71340;55.154;30.266;2023-07-20T01:03:02;98458.69;;;14.06
81885;BMP280;71340;55.154;30.266;2023-07-20T01:05:54;98457.63;;;13.97
81885;BMP280;71340;55.154;30.266;2023-07-20T01:14:25;98449.41;;;13.91
81885;BMP280;71340;55.154;30.266;2023-07-20T01:16:51;98457.97;;;14.02
81885;BMP280;71340;55.154;30.266;2023-07-20T01:19:17;98460.94;;;14.08
81885;BMP280;71340;55.154;30.266;2023-07-20T01:22:02;98454.91;;;14.11
81885;BMP280;71340;55.154;30.266;2023-07-20T01:24:37;98456.75;;;14.14
81885;BMP280;71340;55.154;30.266;2023-07-20T01:32:36;98461.34;;;14.03
81885;BMP280;71340;55.154;30.266;2023-07-20T01:35:05;98461.78;;;13.98
81885;BMP280;71340;55.154;30.266;2023-07-20T01:37:31;98478.66;;;14.04
81885;BMP280;71340;55.154;30.266;2023-07-20T01:39:58;98468.91;;;14.01
81885;BMP280;71340;55.154;30.266;2023-07-20T01:42:24;98482.47;;;13.99
81885;BMP280;71340;55.154;30.266;2023-07-20T01:44:53;98474.19;;;13.94
81885;BMP280;71340;55.154;30.266;2023-07-20T01:47:19;98478.34;;;13.95
81885;BMP280;71340;55.154;30.266;2023-07-20T01:49:44;98482.88;;;13.91
81885;BMP280;71340;55.154;30.266;2023-07-20T01:52:10;98479.47;;;13.90
81885;BMP280;71340;55.154;30.266;2023-07-20T01:54:35;98476.50;;;13.92
81885;BMP280;71340;55.154;30.266;2023-07-20T01:57:00;98474.19;;;13.94
81885;BMP280;71340;55.154;30.266;2023-07-20T01:59:26;98470.41;;;13.98
81885;BMP280;71340;55.154;30.266;2023-07-20T02:01:52;98473.38;;;14.04
81885;BMP280;71340;55.154;30.266;2023-07-20T02:04:17;98467.75;;;14.05
81885;BMP280;71340;55.154;30.266;2023-07-20T02:06:42;98471.09;;;14.09
81885;BMP280;71340;55.154;30.266;2023-07-20T02:09:08;98471.75;;;14.20
81885;BMP280;71340;55.154;30.266;2023-07-20T02:11:33;98471.38;;;14.22
81885;BMP280;71340;55.154;30.266;2023-07-20T02:13:58;98470.25;;;14.23
81885;BMP280;71340;55.154;30.266;2023-07-20T02:16:24;98475.09;;;14.28
81885;BMP280;71340;55.154;30.266;2023-07-20T02:18:49;98464.22;;;14.22
81885;BMP280;71340;55.154;30.266;2023-07-20T02:21:14;98472.88;;;14.19
81885;BMP280;71340;55.154;30.266;2023-07-20T02:23:40;98475.44;;;14.30
81885;BMP280;71340;55.154;30.266;2023-07-20T02:26:05;98471.69;;;14.27
81885;BMP280;71340;55.154;30.266;2023-07-20T02:28:31;98476.19;;;14.34
81885;BMP280;71340;55.154;30.266;2023-07-20T02:30:57;98483.63;;;14.42
81885;BMP280;71340;55.154;30.266;2023-07-20T02:33:22;98476.44;;;14.50
81885;BMP280;71340;55.154;30.266;2023-07-20T02:35:47;98479.00;;;14.53
81885;BMP280;71340;55.154;30.266;2023-07-20T02:38:13;98485.47;;;14.49
81885;BMP280;71340;55.154;30.266;2023-07-20T02:40:38;98479.81;;;14.50
81885;BMP280;71340;55.154;30.266;2023-07-20T02:43:03;98484.75;;;14.45
81885;BMP280;71340;55.154;30.266;2023-07-20T02:45:29;98490.41;;;14.47
81885;BMP280;71340;55.154;30.266;2023-07-20T02:47:54;98482.88;;;14.42
81885;BMP280;71340;55.154;30.266;2023-07-20T02:50:19;98488.50;;;14.47
81885;BMP280;71340;55.154;30.266;2023-07-20T02:52:45;98494.91;;;14.46
81885;BMP280;71340;55.154;30.266;2023-07-20T02:55:10;98483.25;;;14.44
81885;BMP280;71340;55.154;30.266;2023-07-20T02:57:36;98486.19;;;14.53
81885;BMP280;71340;55.154;30.266;2023-07-20T03:00:02;98494.44;;;14.55
81885;BMP280;71340;55.154;30.266;2023-07-20T03:02:30;98495.69;;;14.47
81885;BMP280;71340;55.154;30.266;2023-07-20T03:04:55;98490.72;;;14.52
81885;BMP280;71340;55.154;30.266;2023-07-20T03:07:22;98491.81;;;14.55
81885;BMP280;71340;55.154;30.266;2023-07-20T03:09:47;98493.38;;;14.52
81885;BMP280;71340;55.154;30.266;2023-07-20T03:12:13;98491.81;;;14.55
81885;BMP280;71340;55.154;30.266;2023-07-20T03:14:38;98494.03;;;14.60
81885;BMP280;71340;55.154;30.266;2023-07-20T03:17:04;98489.94;;;14.59
81885;BMP280;71340;55.154;30.266;2023-07-20T03:19:30;98495.47;;;14.68
81885;BMP280;71340;55.154;30.266;2023-07-20T03:21:55;98500.00;;;14.68
81885;BMP280;71340;55.154;30.266;2023-07-20T03:24:20;98490.13;;;14.75
81885;BMP280;71340;55.154;30.266;2023-07-20T03:26:46;98496.81;;;14.83
81885;BMP280;71340;55.154;30.266;2023-07-20T03:29:11;98497.97;;;14.82
81885;BMP280;71340;55.154;30.266;2023-07-20T03:31:37;98505.94;;;14.79
81885;BMP280;71340;55.154;30.266;2023-07-20T03:34:02;98506.28;;;14.81
81885;BMP280;71340;55.154;30.266;2023-07-20T03:36:27;98507.84;;;14.71
81885;BMP280;71340;55.154;30.266;2023-07-20T03:38:53;98508.25;;;14.73
81885;BMP280;71340;55.154;30.266;2023-07-20T03:41:18;98516.75;;;14.88
81885;BMP280;71340;55.154;30.266;2023-07-20T03:43:45;98510.31;;;14.92
81885;BMP280;71340;55.154;30.266;2023-07-20T03:46:10;98508.75;;;14.95
81885;BMP280;71340;55.154;30.266;2023-07-20T03:48:35;98495.13;;;15.03
81885;BMP280;71340;55.154;30.266;2023-07-20T03:51:01;98506.34;;;15.11
81885;BMP280;71340;55.154;30.266;2023-07-20T03:53:26;98505.66;;;15.03
81885;BMP280;71340;55.154;30.266;2023-07-20T03:55:53;98492.47;;;15.03
81885;BMP280;71340;55.154;30.266;2023-07-20T03:58:19;98502.66;;;15.05
81885;BMP280;71340;55.154;30.266;2023-07-20T04:00:49;98503.47;;;14.98
81885;BMP280;71340;55.154;30.266;2023-07-20T04:03:20;98506.13;;;14.98
81885;BMP280;71340;55.154;30.266;2023-07-20T04:05:46;98504.97;;;14.99
81885;BMP280;71340;55.154;30.266;2023-07-20T04:08:11;98507.50;;;15.10
81885;BMP280;71340;55.154;30.266;2023-07-20T04:10:37;98504.78;;;15.17
81885;BMP280;71340;55.154;30.266;2023-07-20T04:13:03;98499.81;;;15.22
81885;BMP280;71340;55.154;30.266;2023-07-20T04:15:28;98506.06;;;15.35
81885;BMP280;71340;55.154;30.266;2023-07-20T04:17:54;98504.56;;;15.38
81885;BMP280;71340;55.154;30.266;2023-07-20T04:20:20;98500.56;;;15.53
81885;BMP280;71340;55.154;30.266;2023-07-20T04:22:46;98508.03;;;15.62
81885;BMP280;71340;55.154;30.266;2023-07-20T04:25:11;98500.97;;;15.82
81885;BMP280;71340;55.154;30.266;2023-07-20T04:27:37;98502.56;;;15.76
81885;BMP280;71340;55.154;30.266;2023-07-20T04:30:02;98506.34;;;15.75
81885;BMP280;71340;55.154;30.266;2023-07-20T04:32:28;98500.69;;;15.76
81885;BMP280;71340;55.154;30.266;2023-07-20T04:34:54;98496.81;;;15.81
81885;BMP280;71340;55.154;30.266;2023-07-20T04:37:19;98501.75;;;15.79
81885;BMP280;71340;55.154;30.266;2023-07-20T04:39:45;98504.19;;;15.93
81885;BMP280;71340;55.154;30.266;2023-07-20T04:42:11;98501.38;;;16.03
81885;BMP280;71340;55.154;30.266;2023-07-20T04:44:36;98503.38;;;16.22
81885;BMP280;71340;55.154;30.266;2023-07-20T04:47:01;98503.69;;;16.24
81885;BMP280;71340;55.154;30.266;2023-07-20T04:49:28;98505.63;;;16.24
81885;BMP280;71340;55.154;30.266;2023-07-20T04:51:53;98500.69;;;16.49
81885;BMP280;71340;55.154;30.266;2023-07-20T04:54:19;98509.66;;;16.55
81885;BMP280;71340;55.154;30.266;2023-07-20T04:56:45;98509.91;;;16.61
81885;BMP280;71340;55.154;30.266;2023-07-20T04:59:10;98501.13;;;16.44
81885;BMP280;71340;55.154;30.266;2023-07-20T05:01:35;98510.59;;;16.65
81885;BMP280;71340;55.154;30.266;2023-07-20T05:04:01;98501.09;;;16.67
81885;BMP280;71340;55.154;30.266;2023-07-20T05:06:27;98496.75;;;16.57
81885;BMP280;71340;55.154;30.266;2023-07-20T05:08:52;98503.66;;;16.51
81885;BMP280;71340;55.154;30.266;2023-07-20T05:11:17;98498.59;;;16.60
81885;BMP280;71340;55.154;30.266;2023-07-20T05:13:43;98493.97;;;16.64
81885;BMP280;71340;55.154;30.266;2023-07-20T05:16:08;98493.72;;;16.78
81885;BMP280;71340;55.154;30.266;2023-07-20T05:18:33;98485.66;;;16.85
81885;BMP280;71340;55.154;30.266;2023-07-20T05:20:59;98496.03;;;16.96
81885;BMP280;71340;55.154;30.266;2023-07-20T05:23:24;98500.44;;;16.83
81885;BMP280;71340;55.154;30.266;2023-07-20T05:25:56;98494.31;;;16.66
81885;BMP280;71340;55.154;30.266;2023-07-20T05:28:25;98499.47;;;16.73
81885;BMP280;71340;55.154;30.266;2023-07-20T05:30:53;98503.91;;;16.80
81885;BMP280;71340;55.154;30.266;2023-07-20T05:33:20;98510.75;;;16.77
81885;BMP280;71340;55.154;30.266;2023-07-20T05:35:45;98502.53;;;16.72
81885;BMP280;71340;55.154;30.266;2023-07-20T05:38:11;98495.69;;;16.54
81885;BMP280;71340;55.154;30.266;2023-07-20T05:40:43;98501.03;;;16.71
81885;BMP280;71340;55.154;30.266;2023-07-20T05:43:12;98494.78;;;16.84
81885;BMP280;71340;55.154;30.266;2023-07-20T05:45:37;98496.66;;;17.03
81885;BMP280;71340;55.154;30.266;2023-07-20T05:48:03;98503.25;;;17.15
81885;BMP280;71340;55.154;30.266;2023-07-20T05:50:28;98497.72;;;17.25
81885;BMP280;71340;55.154;30.266;2023-07-20T05:52:54;98499.47;;;17.51
81885;BMP280;71340;55.154;30.266;2023-07-20T05:55:20;98506.91;;;17.56
81885;BMP280;71340;55.154;30.266;2023-07-20T05:57:46;98509.00;;;17.81
81885;BMP280;71340;55.154;30.266;2023-07-20T06:00:13;98515.22;;;17.75
81885;BMP280;71340;55.154;30.266;2023-07-20T06:02:38;98520.72;;;17.84
81885;BMP280;71340;55.154;30.266;2023-07-20T06:05:05;98516.72;;;17.76
81885;BMP280;71340;55.154;30.266;2023-07-20T06:07:32;98511.34;;;17.63
81885;BMP280;71340;55.154;30.266;2023-07-20T06:09:57;98516.50;;;18.02
81885;BMP280;71340;55.154;30.266;2023-07-20T06:12:23;98507.19;;;17.78
81885;BMP280;71340;55.154;30.266;2023-07-20T06:14:49;98508.59;;;17.99
81885;BMP280;71340;55.154;30.266;2023-07-20T06:17:14;98515.66;;;18.05
81885;BMP280;71340;55.154;30.266;2023-07-20T06:19:39;98510.44;;;18.02
81885;BMP280;71340;55.154;30.266;2023-07-20T06:22:05;98511.53;;;18.20
81885;BMP280;71340;55.154;30.266;2023-07-20T06:24:30;98488.56;;;18.30
81885;BMP280;71340;55.154;30.266;2023-07-20T06:26:56;98501.06;;;18.74
81885;BMP280;71340;55.154;30.266;2023-07-20T06:29:21;98495.00;;;18.86
81885;BMP280;71340;55.154;30.266;2023-07-20T06:31:47;98500.28;;;19.02
81885;BMP280;71340;55.154;30.266;2023-07-20T06:34:12;98490.03;;;18.88
81885;BMP280;71340;55.154;30.266;2023-07-20T06:36:37;98493.91;;;19.12
81885;BMP280;71340;55.154;30.266;2023-07-20T06:39:03;98490.72;;;19.17
81885;BMP280;71340;55.154;30.266;2023-07-20T06:41:29;98484.06;;;19.38
81885;BMP280;71340;55.154;30.266;2023-07-20T06:43:54;98478.34;;;18.86
81885;BMP280;71340;55.154;30.266;2023-07-20T06:46:26;98472.56;;;18.62
81885;BMP280;71340;55.154;30.266;2023-07-20T06:48:52;98482.97;;;18.69
81885;BMP280;71340;55.154;30.266;2023-07-20T06:51:17;98483.69;;;18.98
81885;BMP280;71340;55.154;30.266;2023-07-20T06:53:43;98477.41;;;19.05
81885;BMP280;71340;55.154;30.266;2023-07-20T06:56:08;98478.72;;;18.72
81885;BMP280;71340;55.154;30.266;2023-07-20T06:58:34;98471.16;;;18.57
81885;BMP280;71340;55.154;30.266;2023-07-20T07:01:04;98481.19;;;18.50
81885;BMP280;71340;55.154;30.266;2023-07-20T07:03:30;98483.66;;;18.86
81885;BMP280;71340;55.154;30.266;2023-07-20T07:05:55;98479.84;;;18.99
81885;BMP280;71340;55.154;30.266;2023-07-20T07:08:21;98488.28;;;18.98
81885;BMP280;71340;55.154;30.266;2023-07-20T07:10:46;98483.78;;;18.95
81885;BMP280;71340;55.154;30.266;2023-07-20T07:13:12;98476.03;;;18.88
81885;BMP280;71340;55.154;30.266;2023-07-20T07:15:37;98482.31;;;18.94
81885;BMP280;71340;55.154;30.266;2023-07-20T07:18:03;98482.63;;;19.08
81885;BMP280;71340;55.154;30.266;2023-07-20T07:20:28;98487.66;;;19.06
81885;BMP280;71340;55.154;30.266;2023-07-20T07:22:53;98480.19;;;19.14
81885;BMP280;71340;55.154;30.266;2023-07-20T07:25:20;98485.22;;;19.24
81885;BMP280;71340;55.154;30.266;2023-07-20T07:27:46;98488.41;;;19.32
81885;BMP280;71340;55.154;30.266;2023-07-20T07:30:12;98486.38;;;19.48
81885;BMP280;71340;55.154;30.266;2023-07-20T07:32:37;98478.75;;;19.25
81885;BMP280;71340;55.154;30.266;2023-07-20T07:35:03;98475.75;;;19.23
81885;BMP280;71340;55.154;30.266;2023-07-20T07:37:28;98478.53;;;19.20
81885;BMP280;71340;55.154;30.266;2023-07-20T07:39:54;98476.63;;;18.79
81885;BMP280;71340;55.154;30.266;2023-07-20T07:42:19;98471.59;;;18.97
81885;BMP280;71340;55.154;30.266;2023-07-20T07:44:45;98482.13;;;19.26
81885;BMP280;71340;55.154;30.266;2023-07-20T07:47:10;98473.19;;;19.45
81885;BMP280;71340;55.154;30.266;2023-07-20T07:49:36;98489.28;;;20.01
81885;BMP280;71340;55.154;30.266;2023-07-20T07:52:01;98480.84;;;20.15
81885;BMP280;71340;55.154;30.266;2023-07-20T07:54:30;98478.13;;;20.06
81885;BMP280;71340;55.154;30.266;2023-07-20T07:56:55;98478.50;;;20.17
81885;BMP280;71340;55.154;30.266;2023-07-20T07:59:21;98482.81;;;20.36
81885;BMP280;71340;55.154;30.266;2023-07-20T08:01:46;98462.69;;;20.35
81885;BMP280;71340;55.154;30.266;2023-07-20T08:04:11;98476.03;;;20.22
81885;BMP280;71340;55.154;30.266;2023-07-20T08:06:38;98472.81;;;20.06
81885;BMP280;71340;55.154;30.266;2023-07-20T08:09:03;98471.53;;;19.98
81885;BMP280;71340;55.154;30.266;2023-07-20T08:11:29;98461.63;;;20.11
81885;BMP280;71340;55.154;30.266;2023-07-20T08:13:56;98462.66;;;20.13
81885;BMP280;71340;55.154;30.266;2023-07-20T08:16:21;98468.88;;;19.98
81885;BMP280;71340;55.154;30.266;2023-07-20T08:18:47;98462.03;;;19.62
81885;BMP280;71340;55.154;30.266;2023-07-20T08:21:12;98468.63;;;19.45
81885;BMP280;71340;55.154;30.266;2023-07-20T08:23:37;98450.34;;;19.22
81885;BMP280;71340;55.154;30.266;2023-07-20T08:26:03;98461.22;;;19.15
81885;BMP280;71340;55.154;30.266;2023-07-20T08:28:29;98462.88;;;19.09
81885;BMP280;71340;55.154;30.266;2023-07-20T08:30:54;98464.69;;;19.12
81885;BMP280;71340;55.154;30.266;2023-07-20T08:33:20;98462.78;;;19.63
81885;BMP280;71340;55.154;30.266;2023-07-20T08:35:46;98463.72;;;20.37
81885;BMP280;71340;55.154;30.266;2023-07-20T08:38:11;98462.00;;;20.65
81885;BMP280;71340;55.154;30.266;2023-07-20T08:40:47;98459.50;;;20.61
81885;BMP280;71340;55.154;30.266;2023-07-20T08:43:13;98464.88;;;20.49
81885;BMP280;71340;55.154;30.266;2023-07-20T08:45:40;98462.94;;;20.28
81885;BMP280;71340;55.154;30.266;2023-07-20T08:48:06;98459.72;;;19.64
81885;BMP280;71340;55.154;30.266;2023-07-20T08:50:32;98460.50;;;19.74
81885;BMP280;71340;55.154;30.266;2023-07-20T08:52:59;98466.88;;;19.89
81885;BMP280;71340;55.154;30.266;2023-07-20T08:55:26;98453.34;;;20.52
81885;BMP280;71340;55.154;30.266;2023-07-20T08:57:54;98461.72;;;21.02
81885;BMP280;71340;55.154;30.266;2023-07-20T09:00:20;98468.44;;;21.07
81885;BMP280;71340;55.154;30.266;2023-07-20T09:02:52;98449.69;;;21.29
81885;BMP280;71340;55.154;30.266;2023-07-20T09:05:22;98448.31;;;20.32
81885;BMP280;71340;55.154;30.266;2023-07-20T09:07:48;98455.72;;;20.59
81885;BMP280;71340;55.154;30.266;2023-07-20T09:10:14;98459.75;;;20.85
81885;BMP280;71340;55.154;30.266;2023-07-20T09:12:41;98457.81;;;20.85
81885;BMP280;71340;55.154;30.266;2023-07-20T09:15:08;98454.50;;;20.72
81885;BMP280;71340;55.154;30.266;2023-07-20T09:17:34;98442.81;;;21.01
81885;BMP280;71340;55.154;30.266;2023-07-20T09:20:03;98438.28;;;21.10
81885;BMP280;71340;55.154;30.266;2023-07-20T09:22:33;98452.88;;;21.54
81885;BMP280;71340;55.154;30.266;2023-07-20T09:24:58;98456.66;;;21.93
81885;BMP280;71340;55.154;30.266;2023-07-20T09:27:44;98452.81;;;22.12
81885;BMP280;71340;55.154;30.266;2023-07-20T09:30:10;98454.44;;;22.28
81885;BMP280;71340;55.154;30.266;2023-07-20T09:32:45;98451.28;;;22.20
81885;BMP280;71340;55.154;30.266;2023-07-20T09:35:15;98464.63;;;22.02
81885;BMP280;71340;55.154;30.266;2023-07-20T09:37:46;98442.81;;;21.58
81885;BMP280;71340;55.154;30.266;2023-07-20T09:40:15;98449.50;;;21.05
81885;BMP280;71340;55.154;30.266;2023-07-20T09:42:40;98463.56;;;21.54
81885;BMP280;71340;55.154;30.266;2023-07-20T09:45:07;98458.13;;;21.94
81885;BMP280;71340;55.154;30.266;2023-07-20T09:47:35;98453.53;;;22.31
81885;BMP280;71340;55.154;30.266;2023-07-20T09:50:01;98445.84;;;22.74
81885;BMP280;71340;55.154;30.266;2023-07-20T09:52:29;98445.66;;;22.87
81885;BMP280;71340;55.154;30.266;2023-07-20T09:54:55;98460.22;;;22.77
81885;BMP280;71340;55.154;30.266;2023-07-20T09:57:21;98445.34;;;23.17
81885;BMP280;71340;55.154;30.266;2023-07-20T09:59:47;98450.47;;;23.77
81885;BMP280;71340;55.154;30.266;2023-07-20T10:02:20;98442.81;;;23.70
81885;BMP280;71340;55.154;30.266;2023-07-20T10:04:48;98440.50;;;23.78
81885;BMP280;71340;55.154;30.266;2023-07-20T10:07:15;98444.94;;;23.81
81885;BMP280;71340;55.154;30.266;2023-07-20T10:09:42;98451.16;;;23.63
81885;BMP280;71340;55.154;30.266;2023-07-20T10:12:09;98442.09;;;23.60
81885;BMP280;71340;55.154;30.266;2023-07-20T10:14:39;98445.94;;;23.83
81885;BMP280;71340;55.154;30.266;2023-07-20T10:17:07;98437.75;;;23.48
81885;BMP280;71340;55.154;30.266;2023-07-20T10:19:42;98446.25;;;22.91
81885;BMP280;71340;55.154;30.266;2023-07-20T10:22:14;98444.94;;;22.77
81885;BMP280;71340;55.154;30.266;2023-07-20T10:24:45;98451.09;;;23.25
81885;BMP280;71340;55.154;30.266;2023-07-20T10:27:10;98447.03;;;23.62
81885;BMP280;71340;55.154;30.266;2023-07-20T10:29:36;98441.25;;;23.78
81885;BMP280;71340;55.154;30.266;2023-07-20T10:32:02;98435.25;;;23.83
81885;BMP280;71340;55.154;30.266;2023-07-20T10:34:27;98437.50;;;24.28
81885;BMP280;71340;55.154;30.266;2023-07-20T10:36:53;98427.59;;;24.49
81885;BMP280;71340;55.154;30.266;2023-07-20T10:39:31;98435.91;;;24.65
81885;BMP280;71340;55.154;30.266;2023-07-20T10:42:06;98416.53;;;24.12
81885;BMP280;71340;55.154;30.266;2023-07-20T10:44:33;98431.31;;;24.51
81885;BMP280;71340;55.154;30.266;2023-07-20T10:47:03;98429.06;;;23.77
81885;BMP280;71340;55.154;30.266;2023-07-20T10:49:35;98420.66;;;23.70
81885;BMP280;71340;55.154;30.266;2023-07-20T10:52:05;98419.19;;;23.83
81885;BMP280;71340;55.154;30.266;2023-07-20T10:56:59;98418.84;;;24.19
81885;BMP280;71340;55.154;30.266;2023-07-20T10:59:43;98420.69;;;23.84
81885;BMP280;71340;55.154;30.266;2023-07-20T11:02:08;98423.38;;;24.28
81885;BMP280;71340;55.154;30.266;2023-07-20T11:04:44;98417.94;;;24.86
81885;BMP280;71340;55.154;30.266;2023-07-20T11:07:10;98418.44;;;25.04
81885;BMP280;71340;55.154;30.266;2023-07-20T11:09:39;98418.91;;;25.03
81885;BMP280;71340;55.154;30.266;2023-07-20T11:12:24;98420.84;;;24.68
81885;BMP280;71340;55.154;30.266;2023-07-20T11:17:29;98409.38;;;25.02
81885;BMP280;71340;55.154;30.266;2023-07-20T11:20:02;98425.41;;;24.33
81885;BMP280;71340;55.154;30.266;2023-07-20T11:22:30;98412.44;;;23.73
81885;BMP280;71340;55.154;30.266;2023-07-20T11:24:57;98420.50;;;23.49
81885;BMP280;71340;55.154;30.266;2023-07-20T11:27:23;98426.72;;;22.99
81885;BMP280;71340;55.154;30.266;2023-07-20T11:29:48;98421.63;;;22.78
81885;BMP280;71340;55.154;30.266;2023-07-20T11:32:21;98409.03;;;22.28
81885;BMP280;71340;55.154;30.266;2023-07-20T11:34:47;98423.78;;;22.65
81885;BMP280;71340;55.154;30.266;2023-07-20T11:37:13;98418.63;;;22.85
81885;BMP280;71340;55.154;30.266;2023-07-20T11:39:38;98428.72;;;22.81
81885;BMP280;71340;55.154;30.266;2023-07-20T11:42:05;98434.88;;;22.72
81885;BMP280;71340;55.154;30.266;2023-07-20T11:44:31;98426.88;;;22.96
81885;BMP280;71340;55.154;30.266;2023-07-20T11:47:10;98419.88;;;23.31
81885;BMP280;71340;55.154;30.266;2023-07-20T11:49:41;98420.84;;;23.19
81885;BMP280;71340;55.154;30.266;2023-07-20T11:52:11;98407.22;;;23.55
81885;BMP280;71340;55.154;30.266;2023-07-20T11:54:40;98419.59;;;24.05
81885;BMP280;71340;55.154;30.266;2023-07-20T11:57:06;98418.69;;;24.08
81885;BMP280;71340;55.154;30.266;2023-07-20T11:59:31;98420.91;;;24.73
81885;BMP280;71340;55.154;30.266;2023-07-20T12:02:00;98412.22;;;24.44
81885;BMP280;71340;55.154;30.266;2023-07-20T12:04:26;98419.66;;;24.69
81885;BMP280;71340;55.154;30.266;2023-07-20T12:06:53;98404.69;;;24.62
81885;BMP280;71340;55.154;30.266;2023-07-20T12:09:19;98406.72;;;24.53
81885;BMP280;71340;55.154;30.266;2023-07-20T12:11:45;98411.50;;;25.18
81885;BMP280;71340;55.154;30.266;2023-07-20T12:14:10;98404.44;;;25.41
81885;BMP280;71340;55.154;30.266;2023-07-20T12:16:37;98409.22;;;24.91
81885;BMP280;71340;55.154;30.266;2023-07-20T12:19:07;98404.69;;;24.62
81885;BMP280;71340;55.154;30.266;2023-07-20T12:21:37;98397.34;;;24.77
81885;BMP280;71340;55.154;30.266;2023-07-20T12:24:04;98406.69;;;25.02
81885;BMP280;71340;55.154;30.266;2023-07-20T12:26:31;98400.72;;;25.12
81885;BMP280;71340;55.154;30.266;2023-07-20T12:28:57;98409.19;;;25.26
81885;BMP280;71340;55.154;30.266;2023-07-20T12:31:23;98402.72;;;25.17
81885;BMP280;71340;55.154;30.266;2023-07-20T12:33:53;98408.03;;;25.12
81885;BMP280;71340;55.154;30.266;2023-07-20T12:36:20;98399.94;;;25.52
81885;BMP280;71340;55.154;30.266;2023-07-20T12:38:46;98402.53;;;25.67
81885;BMP280;71340;55.154;30.266;2023-07-20T12:41:12;98403.06;;;25.25
81885;BMP280;71340;55.154;30.266;2023-07-20T12:43:38;98399.47;;;25.08
81885;BMP280;71340;55.154;30.266;2023-07-20T12:46:05;98390.09;;;25.03
81885;BMP280;71340;55.154;30.266;2023-07-20T12:48:30;98402.81;;;25.69
81885;BMP280;71340;55.154;30.266;2023-07-20T12:50:56;98396.94;;;26.21
81885;BMP280;71340;55.154;30.266;2023-07-20T12:53:22;98395.88;;;26.92
81885;BMP280;71340;55.154;30.266;2023-07-20T12:55:47;98387.31;;;26.82
81885;BMP280;71340;55.154;30.266;2023-07-20T12:58:12;98392.63;;;27.58
81885;BMP280;71340;55.154;30.266;2023-07-20T13:00:38;98379.66;;;28.00
81885;BMP280;71340;55.154;30.266;2023-07-20T13:03:04;98365.59;;;26.97
81885;BMP280;71340;55.154;30.266;2023-07-20T13:05:31;98381.00;;;25.87
81885;BMP280;71340;55.154;30.266;2023-07-20T13:08:00;98379.28;;;25.12
81885;BMP280;71340;55.154;30.266;2023-07-20T13:10:25;98381.50;;;25.60
81885;BMP280;71340;55.154;30.266;2023-07-20T13:12:50;98375.19;;;26.67
81885;BMP280;71340;55.154;30.266;2023-07-20T13:15:18;98366.59;;;26.57
81885;BMP280;71340;55.154;30.266;2023-07-20T13:17:44;98363.34;;;26.06
81885;BMP280;71340;55.154;30.266;2023-07-20T13:20:10;98362.03;;;25.96
81885;BMP280;71340;55.154;30.266;2023-07-20T13:22:39;98359.16;;;25.74
81885;BMP280;71340;55.154;30.266;2023-07-20T13:25:05;98360.34;;;25.47
81885;BMP280;71340;55.154;30.266;2023-07-20T13:27:31;98364.91;;;25.15
81885;BMP280;71340;55.154;30.266;2023-07-20T13:30:00;98369.06;;;25.37
81885;BMP280;71340;55.154;30.266;2023-07-20T13:32:26;98359.31;;;25.65
81885;BMP280;71340;55.154;30.266;2023-07-20T13:34:52;98359.34;;;25.96
81885;BMP280;71340;55.154;30.266;2023-07-20T13:37:18;98359.66;;;26.40
81885;BMP280;71340;55.154;30.266;2023-07-20T13:39:43;98359.84;;;25.94
81885;BMP280;71340;55.154;30.266;2023-07-20T13:42:09;98359.09;;;26.25
81885;BMP280;71340;55.154;30.266;2023-07-20T13:44:36;98365.50;;;26.33
81885;BMP280;71340;55.154;30.266;2023-07-20T13:47:01;98360.19;;;26.97
81885;BMP280;71340;55.154;30.266;2023-07-20T13:49:27;98359.97;;;27.06
81885;BMP280;71340;55.154;30.266;2023-07-20T13:51:53;98358.97;;;26.98
81885;BMP280;71340;55.154;30.266;2023-07-20T13:54:18;98363.34;;;26.90
81885;BMP280;71340;55.154;30.266;2023-07-20T13:56:43;98367.13;;;26.67
81885;BMP280;71340;55.154;30.266;2023-07-20T13:59:09;98369.16;;;26.35
81885;BMP280;71340;55.154;30.266;2023-07-20T14:01:34;98348.47;;;26.47
81885;BMP280;71340;55.154;30.266;2023-07-20T14:04:01;98361.81;;;26.72
81885;BMP280;71340;55.154;30.266;2023-07-20T14:06:31;98353.91;;;28.32
81885;BMP280;71340;55.154;30.266;2023-07-20T14:08:58;98369.22;;;29.22
81885;BMP280;71340;55.154;30.266;2023-07-20T14:11:23;98369.63;;;29.67